sensor_id;sensor_type;location;lat;lon;timestamp;temperature;humidity
72440;DHT22;60446;50.752;4.352;2024-01-07T00:02:08;2.00;99.90
72440;DHT22;60446;50.752;4.352;2024-01-07T00:04:35;2.00;99.90
72440;DHT22;60446;50.752;4.352;2024-01-07T00:07:03;2.00;99.90
72440;DHT22;60446;50.752;4.352;2024-01-07T00:09:31;2.00;99.90
72440;DHT22;60446;50.752;4.352;2024-01-07T00:11:58;2.00;99.90
72440;DHT22;60446;50.752;4.352;2024-01-07T00:14:25;2.00;99.90
72440;DHT22;60446;50.752;4.352;2024-01-07T00:16:53;2.00;99.90
72440;DHT22;60446;50.752;4.352;2024-01-07T00:19:20;2.10;99.90
72440;DHT22;60446;50.752;4.352;2024-01-07T00:21:47;2.00;99.90
72440;DHT22;60446;50.752;4.352;2024-01-07T00:24:14;2.00;99.90
72440;DHT22;60446;50.752;4.352;2024-01-07T00:26:42;2.00;99.90
72440;DHT22;60446;50.752;4.352;2024-01-07T00:29:09;2.00;99.90
72440;DHT22;60446;50.752;4.352;2024-01-07T00:31:36;2.00;99.90
72440;DHT22;60446;50.752;4.352;2024-01-07T00:34:03;1.90;99.90
72440;DHT22;60446;50.752;4.352;2024-01-07T00:36:31;1.90;99.90
72440;DHT22;60446;50.752;4.352;2024-01-07T00:38:58;2.00;99.90
72440;DHT22;60446;50.752;4.352;2024-01-07T00:41:26;2.00;99.90
72440;DHT22;60446;50.752;4.352;2024-01-07T00:43:53;2.00;99.90
72440;DHT22;60446;50.752;4.352;2024-01-07T00:46:20;2.00;99.90
72440;DHT22;60446;50.752;4.352;2024-01-07T00:48:47;1.90;99.90
72440;DHT22;60446;50.752;4.352;2024-01-07T00:51:15;2.00;99.90
72440;DHT22;60446;50.752;4.352;2024-01-07T00:53:42;2.10;99.90
72440;DHT22;60446;50.752;4.352;2024-01-07T00:56:11;2.10;99.90
72440;DHT22;60446;50.752;4.352;2024-01-07T00:58:38;2.00;99.90
72440;DHT22;60446;50.752;4.352;2024-01-07T01:01:06;2.00;99.90
72440;DHT22;60446;50.752;4.352;2024-01-07T01:03:33;2.00;99.90
72440;DHT22;60446;50.752;4.352;2024-01-07T01:06:01;2.00;99.90
72440;DHT22;60446;50.752;4.352;2024-01-07T01:08:29;2.00;99.90
72440;DHT22;60446;50.752;4.352;2024-01-07T01:10:57;2.00;99.90
72440;DHT22;60446;50.752;4.352;2024-01-07T01:13:24;2.00;99.90
72440;DHT22;60446;50.752;4.352;2024-01-07T01:15:51;2.00;99.90
72440;DHT22;60446;50.752;4.352;2024-01-07T01:18:19;2.00;99.90
72440;DHT22;60446;50.752;4.352;2024-01-07T01:20:46;2.00;99.90
72440;DHT22;60446;50.752;4.352;2024-01-07T01:23:13;2.00;99.90
72440;DHT22;60446;50.752;4.352;2024-01-07T01:25:41;2.00;99.90
72440;DHT22;60446;50.752;4.352;2024-01-07T01:28:09;1.90;99.90
72440;DHT22;60446;50.752;4.352;2024-01-07T01:30:36;1.90;99.90
72440;DHT22;60446;50.752;4.352;2024-01-07T01:33:04;1.90;99.90
72440;DHT22;60446;50.752;4.352;2024-01-07T01:35:31;1.90;99.90
72440;DHT22;60446;50.752;4.352;2024-01-07T01:37:59;1.90;99.90
72440;DHT22;60446;50.752;4.352;2024-01-07T01:40:26;1.90;99.90
72440;DHT22;60446;50.752;4.352;2024-01-07T01:42:54;1.80;99.90
72440;DHT22;60446;50.752;4.352;2024-01-07T01:45:21;1.90;99.90
72440;DHT22;60446;50.752;4.352;2024-01-07T01:47:48;2.00;99.90
72440;DHT22;60446;50.752;4.352;2024-01-07T01:50:16;2.00;99.90
72440;DHT22;60446;50.752;4.352;2024-01-07T01:52:45;2.00;99.90
72440;DHT22;60446;50.752;4.352;2024-01-07T01:55:13;2.00;99.90
72440;DHT22;60446;50.752;4.352;2024-01-07T01:57:41;1.90;99.90
72440;DHT22;60446;50.752;4.352;2024-01-07T02:00:09;2.00;99.90
72440;DHT22;60446;50.752;4.352;2024-01-07T02:02:36;2.10;99.90
72440;DHT22;60446;50.752;4.352;2024-01-07T02:05:04;2.10;99.90
72440;DHT22;60446;50.752;4.352;2024-01-07T02:07:31;2.10;99.90
72440;DHT22;60446;50.752;4.352;2024-01-07T02:09:59;2.00;99.90
72440;DHT22;60446;50.752;4.352;2024-01-07T02:12:27;2.00;99.90
72440;DHT22;60446;50.752;4.352;2024-01-07T02:14:54;1.90;99.90
72440;DHT22;60446;50.752;4.352;2024-01-07T02:17:22;1.90;99.90
72440;DHT22;60446;50.752;4.352;2024-01-07T02:19:49;1.90;99.90
72440;DHT22;60446;50.752;4.352;2024-01-07T02:22:16;1.90;99.90
72440;DHT22;60446;50.752;4.352;2024-01-07T02:24:45;1.90;99.90
72440;DHT22;60446;50.752;4.352;2024-01-07T02:27:19;1.80;99.90
72440;DHT22;60446;50.752;4.352;2024-01-07T02:29:46;1.80;99.90
72440;DHT22;60446;50.752;4.352;2024-01-07T02:32:13;1.80;99.90
72440;DHT22;60446;50.752;4.352;2024-01-07T02:34:40;1.80;99.90
72440;DHT22;60446;50.752;4.352;2024-01-07T02:37:08;1.80;99.90
72440;DHT22;60446;50.752;4.352;2024-01-07T02:39:35;1.70;99.90
72440;DHT22;60446;50.752;4.352;2024-01-07T02:42:02;1.70;99.90
72440;DHT22;60446;50.752;4.352;2024-01-07T02:44:30;1.50;99.90
72440;DHT22;60446;50.752;4.352;2024-01-07T02:46:57;1.40;99.90
72440;DHT22;60446;50.752;4.352;2024-01-07T02:49:25;1.40;99.90
72440;DHT22;60446;50.752;4.352;2024-01-07T02:51:52;1.50;99.90
72440;DHT22;60446;50.752;4.352;2024-01-07T02:54:19;1.50;99.90
72440;DHT22;60446;50.752;4.352;2024-01-07T02:56:46;1.50;99.90
72440;DHT22;60446;50.752;4.352;2024-01-07T02:59:14;1.50;99.90
72440;DHT22;60446;50.752;4.352;2024-01-07T03:01:41;1.40;99.90
72440;DHT22;60446;50.752;4.352;2024-01-07T03:04:11;1.30;99.90
72440;DHT22;60446;50.752;4.352;2024-01-07T03:06:40;1.30;99.90
72440;DHT22;60446;50.752;4.352;2024-01-07T03:09:08;1.30;99.90
72440;DHT22;60446;50.752;4.352;2024-01-07T03:11:40;1.30;99.90
72440;DHT22;60446;50.752;4.352;2024-01-07T03:14:09;1.20;99.90
72440;DHT22;60446;50.752;4.352;2024-01-07T03:16:36;1.20;99.90
72440;DHT22;60446;50.752;4.352;2024-01-07T03:19:03;1.20;99.90
72440;DHT22;60446;50.752;4.352;2024-01-07T03:21:31;1.20;99.90
72440;DHT22;60446;50.752;4.352;2024-01-07T03:23:58;1.20;99.90
72440;DHT22;60446;50.752;4.352;2024-01-07T03:26:29;1.20;99.90
72440;DHT22;60446;50.752;4.352;2024-01-07T03:28:59;1.20;99.90
72440;DHT22;60446;50.752;4.352;2024-01-07T03:31:28;1.20;99.90
72440;DHT22;60446;50.752;4.352;2024-01-07T03:33:57;1.20;99.90
72440;DHT22;60446;50.752;4.352;2024-01-07T03:36:25;1.30;99.90
72440;DHT22;60446;50.752;4.352;2024-01-07T03:38:52;1.20;99.90
72440;DHT22;60446;50.752;4.352;2024-01-07T03:41:21;1.20;99.90
72440;DHT22;60446;50.752;4.352;2024-01-07T03:43:49;1.30;99.90
72440;DHT22;60446;50.752;4.352;2024-01-07T03:46:17;1.30;99.90
72440;DHT22;60446;50.752;4.352;2024-01-07T03:48:44;1.30;99.90
72440;DHT22;60446;50.752;4.352;2024-01-07T03:51:12;1.30;99.90
72440;DHT22;60446;50.752;4.352;2024-01-07T03:53:39;1.30;99.90
72440;DHT22;60446;50.752;4.352;2024-01-07T03:56:06;1.20;99.90
72440;DHT22;60446;50.752;4.352;2024-01-07T03:58:34;1.20;99.90
72440;DHT22;60446;50.752;4.352;2024-01-07T04:01:02;1.10;99.90
72440;DHT22;60446;50.752;4.352;2024-01-07T04:03:29;1.10;99.90
72440;DHT22;60446;50.752;4.352;2024-01-07T04:05:56;1.00;99.90
72440;DHT22;60446;50.752;4.352;2024-01-07T04:08:24;1.10;99.90
72440;DHT22;60446;50.752;4.352;2024-01-07T04:10:51;1.10;99.90
72440;DHT22;60446;50.752;4.352;2024-01-07T04:13:19;1.10;99.90
72440;DHT22;60446;50.752;4.352;2024-01-07T04:15:46;1.00;99.90
72440;DHT22;60446;50.752;4.352;2024-01-07T04:18:13;1.10;99.90
72440;DHT22;60446;50.752;4.352;2024-01-07T04:20:41;1.00;99.90
72440;DHT22;60446;50.752;4.352;2024-01-07T04:23:08;1.00;99.90
72440;DHT22;60446;50.752;4.352;2024-01-07T04:25:35;1.00;99.90
72440;DHT22;60446;50.752;4.352;2024-01-07T04:28:02;1.00;99.90
72440;DHT22;60446;50.752;4.352;2024-01-07T04:30:30;1.00;99.90
72440;DHT22;60446;50.752;4.352;2024-01-07T04:32:57;0.90;99.90
72440;DHT22;60446;50.752;4.352;2024-01-07T04:35:24;0.90;99.90
72440;DHT22;60446;50.752;4.352;2024-01-07T04:37:52;0.90;99.90
72440;DHT22;60446;50.752;4.352;2024-01-07T04:40:19;0.80;99.90
72440;DHT22;60446;50.752;4.352;2024-01-07T04:42:46;0.80;99.90
72440;DHT22;60446;50.752;4.352;2024-01-07T04:45:14;0.80;99.90
72440;DHT22;60446;50.752;4.352;2024-01-07T04:47:41;0.80;99.90
72440;DHT22;60446;50.752;4.352;2024-01-07T04:50:08;0.80;99.90
72440;DHT22;60446;50.752;4.352;2024-01-07T04:52:35;0.90;99.90
72440;DHT22;60446;50.752;4.352;2024-01-07T04:55:03;1.00;99.90
72440;DHT22;60446;50.752;4.352;2024-01-07T04:57:30;1.00;99.90
72440;DHT22;60446;50.752;4.352;2024-01-07T04:59:57;0.90;99.90
72440;DHT22;60446;50.752;4.352;2024-01-07T05:02:25;0.80;99.90
72440;DHT22;60446;50.752;4.352;2024-01-07T05:04:52;0.80;99.90
72440;DHT22;60446;50.752;4.352;2024-01-07T05:07:19;0.80;99.90
72440;DHT22;60446;50.752;4.352;2024-01-07T05:09:46;0.70;99.90
72440;DHT22;60446;50.752;4.352;2024-01-07T05:12:14;0.80;99.90
72440;DHT22;60446;50.752;4.352;2024-01-07T05:14:41;0.80;99.90
72440;DHT22;60446;50.752;4.352;2024-01-07T05:17:12;0.70;99.90
72440;DHT22;60446;50.752;4.352;2024-01-07T05:19:42;0.70;99.90
72440;DHT22;60446;50.752;4.352;2024-01-07T05:22:10;0.60;99.90
72440;DHT22;60446;50.752;4.352;2024-01-07T05:24:37;0.60;99.90
72440;DHT22;60446;50.752;4.352;2024-01-07T05:27:08;0.70;99.90
72440;DHT22;60446;50.752;4.352;2024-01-07T05:29:35;0.70;99.90
72440;DHT22;60446;50.752;4.352;2024-01-07T05:32:03;0.70;99.90
72440;DHT22;60446;50.752;4.352;2024-01-07T05:34:31;0.70;99.90
72440;DHT22;60446;50.752;4.352;2024-01-07T05:36:58;0.60;99.90
72440;DHT22;60446;50.752;4.352;2024-01-07T05:39:26;0.60;99.90
72440;DHT22;60446;50.752;4.352;2024-01-07T05:41:53;0.60;99.90
72440;DHT22;60446;50.752;4.352;2024-01-07T05:44:20;0.70;99.90
72440;DHT22;60446;50.752;4.352;2024-01-07T05:46:48;0.70;99.90
72440;DHT22;60446;50.752;4.352;2024-01-07T05:49:15;0.80;99.90
72440;DHT22;60446;50.752;4.352;2024-01-07T05:51:42;0.80;99.90
72440;DHT22;60446;50.752;4.352;2024-01-07T05:54:10;0.80;99.90
72440;DHT22;60446;50.752;4.352;2024-01-07T05:56:41;0.80;99.90
72440;DHT22;60446;50.752;4.352;2024-01-07T05:59:10;0.80;99.90
72440;DHT22;60446;50.752;4.352;2024-01-07T06:01:37;0.80;99.90
72440;DHT22;60446;50.752;4.352;2024-01-07T06:04:04;0.80;99.90
72440;DHT22;60446;50.752;4.352;2024-01-07T06:06:31;0.80;99.90
72440;DHT22;60446;50.752;4.352;2024-01-07T06:09:01;0.70;99.90
72440;DHT22;60446;50.752;4.352;2024-01-07T06:11:29;0.70;99.90
72440;DHT22;60446;50.752;4.352;2024-01-07T06:13:56;0.70;99.90
72440;DHT22;60446;50.752;4.352;2024-01-07T06:16:23;0.80;99.90
72440;DHT22;60446;50.752;4.352;2024-01-07T06:18:50;0.70;99.90
72440;DHT22;60446;50.752;4.352;2024-01-07T06:21:21;0.70;99.90
72440;DHT22;60446;50.752;4.352;2024-01-07T06:23:49;0.80;99.90
72440;DHT22;60446;50.752;4.352;2024-01-07T06:26:16;0.80;99.90
72440;DHT22;60446;50.752;4.352;2024-01-07T06:28:43;0.80;99.90
72440;DHT22;60446;50.752;4.352;2024-01-07T06:31:10;0.80;99.90
72440;DHT22;60446;50.752;4.352;2024-01-07T06:33:38;0.80;99.90
72440;DHT22;60446;50.752;4.352;2024-01-07T06:36:05;0.80;99.90
72440;DHT22;60446;50.752;4.352;2024-01-07T06:38:33;0.80;99.90
72440;DHT22;60446;50.752;4.352;2024-01-07T06:41:00;0.80;99.90
72440;DHT22;60446;50.752;4.352;2024-01-07T06:43:30;0.80;99.90
72440;DHT22;60446;50.752;4.352;2024-01-07T06:45:59;0.70;99.90
72440;DHT22;60446;50.752;4.352;2024-01-07T06:48:26;0.70;99.90
72440;DHT22;60446;50.752;4.352;2024-01-07T06:50:54;0.70;99.90
72440;DHT22;60446;50.752;4.352;2024-01-07T06:53:21;0.70;99.90
72440;DHT22;60446;50.752;4.352;2024-01-07T06:55:49;0.70;99.90
72440;DHT22;60446;50.752;4.352;2024-01-07T06:58:16;0.60;99.90
72440;DHT22;60446;50.752;4.352;2024-01-07T07:00:43;0.70;99.90
72440;DHT22;60446;50.752;4.352;2024-01-07T07:03:11;0.70;99.90
72440;DHT22;60446;50.752;4.352;2024-01-07T07:05:38;0.60;99.90
72440;DHT22;60446;50.752;4.352;2024-01-07T07:08:06;0.70;99.90
72440;DHT22;60446;50.752;4.352;2024-01-07T07:10:33;0.70;99.90
72440;DHT22;60446;50.752;4.352;2024-01-07T07:13:01;0.70;99.90
72440;DHT22;60446;50.752;4.352;2024-01-07T07:15:28;0.70;99.90
72440;DHT22;60446;50.752;4.352;2024-01-07T07:17:56;0.60;99.90
72440;DHT22;60446;50.752;4.352;2024-01-07T07:20:24;0.60;99.90
72440;DHT22;60446;50.752;4.352;2024-01-07T07:22:51;0.60;99.90
72440;DHT22;60446;50.752;4.352;2024-01-07T07:25:18;0.60;99.90
72440;DHT22;60446;50.752;4.352;2024-01-07T07:27:46;0.60;99.90
72440;DHT22;60446;50.752;4.352;2024-01-07T07:30:13;0.60;99.90
72440;DHT22;60446;50.752;4.352;2024-01-07T07:32:41;0.50;99.90
72440;DHT22;60446;50.752;4.352;2024-01-07T07:35:09;0.60;99.90
72440;DHT22;60446;50.752;4.352;2024-01-07T07:37:37;0.60;99.90
72440;DHT22;60446;50.752;4.352;2024-01-07T07:40:05;0.60;99.90
72440;DHT22;60446;50.752;4.352;2024-01-07T07:42:33;0.70;99.90
72440;DHT22;60446;50.752;4.352;2024-01-07T07:45:00;0.70;99.90
72440;DHT22;60446;50.752;4.352;2024-01-07T07:47:29;0.70;99.90
72440;DHT22;60446;50.752;4.352;2024-01-07T07:49:57;0.70;99.90
72440;DHT22;60446;50.752;4.352;2024-01-07T07:52:24;0.80;99.90
72440;DHT22;60446;50.752;4.352;2024-01-07T07:54:53;0.80;99.90
72440;DHT22;60446;50.752;4.352;2024-01-07T07:57:21;0.80;99.90
72440;DHT22;60446;50.752;4.352;2024-01-07T07:59:49;0.80;99.90
72440;DHT22;60446;50.752;4.352;2024-01-07T08:02:16;0.80;99.90
72440;DHT22;60446;50.752;4.352;2024-01-07T08:04:44;0.70;99.90
72440;DHT22;60446;50.752;4.352;2024-01-07T08:07:11;0.70;99.90
72440;DHT22;60446;50.752;4.352;2024-01-07T08:09:38;0.70;99.90
72440;DHT22;60446;50.752;4.352;2024-01-07T08:12:06;0.60;99.90
72440;DHT22;60446;50.752;4.352;2024-01-07T08:14:33;0.60;99.90
72440;DHT22;60446;50.752;4.352;2024-01-07T08:17:01;0.60;99.90
72440;DHT22;60446;50.752;4.352;2024-01-07T08:19:28;0.70;99.90
72440;DHT22;60446;50.752;4.352;2024-01-07T08:21:55;0.70;99.90
72440;DHT22;60446;50.752;4.352;2024-01-07T08:24:23;0.70;99.90
72440;DHT22;60446;50.752;4.352;2024-01-07T08:26:51;0.70;99.90
72440;DHT22;60446;50.752;4.352;2024-01-07T08:29:21;0.70;99.90
72440;DHT22;60446;50.752;4.352;2024-01-07T08:31:49;0.60;99.90
72440;DHT22;60446;50.752;4.352;2024-01-07T08:34:17;0.60;99.90
72440;DHT22;60446;50.752;4.352;2024-01-07T08:36:44;0.60;99.90
72440;DHT22;60446;50.752;4.352;2024-01-07T08:39:16;0.60;99.90
72440;DHT22;60446;50.752;4.352;2024-01-07T08:41:44;0.60;99.90
72440;DHT22;60446;50.752;4.352;2024-01-07T08:44:12;0.70;99.90
72440;DHT22;60446;50.752;4.352;2024-01-07T08:46:39;0.70;99.90
72440;DHT22;60446;50.752;4.352;2024-01-07T08:49:07;0.70;99.90
72440;DHT22;60446;50.752;4.352;2024-01-07T08:51:38;0.70;99.90
72440;DHT22;60446;50.752;4.352;2024-01-07T08:54:09;0.60;99.90
72440;DHT22;60446;50.752;4.352;2024-01-07T08:56:41;0.60;99.90
72440;DHT22;60446;50.752;4.352;2024-01-07T08:59:10;0.60;99.90
72440;DHT22;60446;50.752;4.352;2024-01-07T09:01:37;0.60;99.90
72440;DHT22;60446;50.752;4.352;2024-01-07T09:04:05;0.50;99.90
72440;DHT22;60446;50.752;4.352;2024-01-07T09:06:32;0.50;99.90
72440;DHT22;60446;50.752;4.352;2024-01-07T09:09:04;0.50;99.90
72440;DHT22;60446;50.752;4.352;2024-01-07T09:11:33;0.50;99.90
72440;DHT22;60446;50.752;4.352;2024-01-07T09:14:01;0.60;99.90
72440;DHT22;60446;50.752;4.352;2024-01-07T09:16:29;0.60;99.90
72440;DHT22;60446;50.752;4.352;2024-01-07T09:18:56;0.60;99.90
72440;DHT22;60446;50.752;4.352;2024-01-07T09:21:26;0.60;99.90
72440;DHT22;60446;50.752;4.352;2024-01-07T09:23:57;0.60;99.90
72440;DHT22;60446;50.752;4.352;2024-01-07T09:26:27;0.60;99.90
72440;DHT22;60446;50.752;4.352;2024-01-07T09:28:56;0.50;99.90
72440;DHT22;60446;50.752;4.352;2024-01-07T09:31:23;0.40;99.90
72440;DHT22;60446;50.752;4.352;2024-01-07T09:33:51;0.30;99.90
72440;DHT22;60446;50.752;4.352;2024-01-07T09:36:19;0.40;99.90
72440;DHT22;60446;50.752;4.352;2024-01-07T09:38:58;0.40;99.90
72440;DHT22;60446;50.752;4.352;2024-01-07T09:41:46;0.40;99.90
72440;DHT22;60446;50.752;4.352;2024-01-07T09:44:18;0.40;99.90
72440;DHT22;60446;50.752;4.352;2024-01-07T09:47:13;0.40;99.90
72440;DHT22;60446;50.752;4.352;2024-01-07T09:49:42;0.30;99.90
72440;DHT22;60446;50.752;4.352;2024-01-07T09:52:11;0.40;99.90
72440;DHT22;60446;50.752;4.352;2024-01-07T09:54:40;0.40;99.90
72440;DHT22;60446;50.752;4.352;2024-01-07T09:57:08;0.40;99.90
72440;DHT22;60446;50.752;4.352;2024-01-07T09:59:36;0.40;99.90
72440;DHT22;60446;50.752;4.352;2024-01-07T10:02:03;0.40;99.90
72440;DHT22;60446;50.752;4.352;2024-01-07T10:04:31;0.40;99.90
72440;DHT22;60446;50.752;4.352;2024-01-07T10:06:59;0.40;99.90
72440;DHT22;60446;50.752;4.352;2024-01-07T10:09:30;0.40;99.90
72440;DHT22;60446;50.752;4.352;2024-01-07T10:12:00;0.50;99.90
72440;DHT22;60446;50.752;4.352;2024-01-07T10:14:28;0.50;99.90
72440;DHT22;60446;50.752;4.352;2024-01-07T10:16:59;0.40;99.90
72440;DHT22;60446;50.752;4.352;2024-01-07T10:19:27;0.40;99.90
72440;DHT22;60446;50.752;4.352;2024-01-07T10:22:01;0.40;99.90
72440;DHT22;60446;50.752;4.352;2024-01-07T10:24:38;0.40;99.90
72440;DHT22;60446;50.752;4.352;2024-01-07T10:27:08;0.40;99.90
72440;DHT22;60446;50.752;4.352;2024-01-07T10:29:36;0.40;99.90
72440;DHT22;60446;50.752;4.352;2024-01-07T10:32:05;0.40;99.90
72440;DHT22;60446;50.752;4.352;2024-01-07T10:34:34;0.30;99.90
72440;DHT22;60446;50.752;4.352;2024-01-07T10:37:04;0.30;99.90
72440;DHT22;60446;50.752;4.352;2024-01-07T10:39:33;0.20;99.90
72440;DHT22;60446;50.752;4.352;2024-01-07T10:42:01;0.20;99.90
72440;DHT22;60446;50.752;4.352;2024-01-07T10:44:33;0.20;99.90
72440;DHT22;60446;50.752;4.352;2024-01-07T10:47:05;0.20;99.90
72440;DHT22;60446;50.752;4.352;2024-01-07T10:49:35;0.10;99.90
72440;DHT22;60446;50.752;4.352;2024-01-07T10:52:06;0.10;99.90
72440;DHT22;60446;50.752;4.352;2024-01-07T10:54:36;0.10;99.90
72440;DHT22;60446;50.752;4.352;2024-01-07T10:57:09;0.10;99.90
72440;DHT22;60446;50.752;4.352;2024-01-07T10:59:57;0.20;99.90
72440;DHT22;60446;50.752;4.352;2024-01-07T11:02:26;0.20;99.90
72440;DHT22;60446;50.752;4.352;2024-01-07T11:05:15;0.10;99.90
72440;DHT22;60446;50.752;4.352;2024-01-07T11:08:03;0.10;99.90
72440;DHT22;60446;50.752;4.352;2024-01-07T11:10:50;0.10;99.90
72440;DHT22;60446;50.752;4.352;2024-01-07T11:13:37;0.10;99.90
72440;DHT22;60446;50.752;4.352;2024-01-07T11:16:07;0.20;99.90
72440;DHT22;60446;50.752;4.352;2024-01-07T11:18:50;0.20;99.90
72440;DHT22;60446;50.752;4.352;2024-01-07T11:21:23;0.20;99.90
72440;DHT22;60446;50.752;4.352;2024-01-07T11:23:53;0.20;99.90
72440;DHT22;60446;50.752;4.352;2024-01-07T11:26:21;0.20;99.90
72440;DHT22;60446;50.752;4.352;2024-01-07T11:28:54;0.20;99.90
72440;DHT22;60446;50.752;4.352;2024-01-07T11:34:09;0.30;99.90
72440;DHT22;60446;50.752;4.352;2024-01-07T11:36:37;0.30;99.90
72440;DHT22;60446;50.752;4.352;2024-01-07T11:39:05;0.30;99.90
72440;DHT22;60446;50.752;4.352;2024-01-07T11:41:37;0.30;99.90
72440;DHT22;60446;50.752;4.352;2024-01-07T11:44:07;0.30;99.90
72440;DHT22;60446;50.752;4.352;2024-01-07T11:46:38;0.20;99.90
72440;DHT22;60446;50.752;4.352;2024-01-07T11:49:08;0.20;99.90
72440;DHT22;60446;50.752;4.352;2024-01-07T11:51:39;0.20;99.90
72440;DHT22;60446;50.752;4.352;2024-01-07T11:54:07;0.20;99.90
72440;DHT22;60446;50.752;4.352;2024-01-07T11:56:34;0.20;99.90
72440;DHT22;60446;50.752;4.352;2024-01-07T11:59:03;0.20;99.90
72440;DHT22;60446;50.752;4.352;2024-01-07T12:01:31;0.10;99.90
72440;DHT22;60446;50.752;4.352;2024-01-07T12:03:59;0.10;99.90
72440;DHT22;60446;50.752;4.352;2024-01-07T12:06:27;0.00;99.90
72440;DHT22;60446;50.752;4.352;2024-01-07T12:08:54;0.00;99.90
72440;DHT22;60446;50.752;4.352;2024-01-07T12:11:22;-0.10;99.90
72440;DHT22;60446;50.752;4.352;2024-01-07T12:13:53;-0.10;99.90
72440;DHT22;60446;50.752;4.352;2024-01-07T12:16:20;0.00;99.90
72440;DHT22;60446;50.752;4.352;2024-01-07T12:18:47;0.00;99.90
72440;DHT22;60446;50.752;4.352;2024-01-07T12:21:21;0.10;99.90
72440;DHT22;60446;50.752;4.352;2024-01-07T12:23:49;0.10;99.90
72440;DHT22;60446;50.752;4.352;2024-01-07T12:26:17;0.20;99.90
72440;DHT22;60446;50.752;4.352;2024-01-07T12:28:52;0.20;99.90
72440;DHT22;60446;50.752;4.352;2024-01-07T12:31:21;0.20;99.90
72440;DHT22;60446;50.752;4.352;2024-01-07T12:33:49;0.30;99.90
72440;DHT22;60446;50.752;4.352;2024-01-07T12:36:20;0.30;99.90
72440;DHT22;60446;50.752;4.352;2024-01-07T12:38:52;0.20;99.90
72440;DHT22;60446;50.752;4.352;2024-01-07T12:41:22;0.30;99.90
72440;DHT22;60446;50.752;4.352;2024-01-07T12:43:50;0.20;99.90
72440;DHT22;60446;50.752;4.352;2024-01-07T12:46:17;0.30;99.90
72440;DHT22;60446;50.752;4.352;2024-01-07T12:48:44;0.20;99.90
72440;DHT22;60446;50.752;4.352;2024-01-07T12:51:12;0.30;99.90
72440;DHT22;60446;50.752;4.352;2024-01-07T12:53:39;0.40;99.90
72440;DHT22;60446;50.752;4.352;2024-01-07T12:56:06;0.40;99.90
72440;DHT22;60446;50.752;4.352;2024-01-07T12:58:33;0.30;99.90
72440;DHT22;60446;50.752;4.352;2024-01-07T13:01:01;0.30;99.90
72440;DHT22;60446;50.752;4.352;2024-01-07T13:03:30;0.20;99.90
72440;DHT22;60446;50.752;4.352;2024-01-07T13:06:00;0.20;99.90
72440;DHT22;60446;50.752;4.352;2024-01-07T13:08:28;0.30;99.90
72440;DHT22;60446;50.752;4.352;2024-01-07T13:10:55;0.40;99.90
72440;DHT22;60446;50.752;4.352;2024-01-07T13:13:23;0.40;99.90
72440;DHT22;60446;50.752;4.352;2024-01-07T13:15:50;0.20;99.90
72440;DHT22;60446;50.752;4.352;2024-01-07T13:18:18;0.10;99.90
72440;DHT22;60446;50.752;4.352;2024-01-07T13:20:46;0.10;99.90
72440;DHT22;60446;50.752;4.352;2024-01-07T13:23:13;0.00;99.90
72440;DHT22;60446;50.752;4.352;2024-01-07T13:25:40;0.00;99.90
72440;DHT22;60446;50.752;4.352;2024-01-07T13:28:07;0.00;99.90
72440;DHT22;60446;50.752;4.352;2024-01-07T13:30:38;0.00;99.90
72440;DHT22;60446;50.752;4.352;2024-01-07T13:33:07;-0.10;99.90
72440;DHT22;60446;50.752;4.352;2024-01-07T13:35:35;0.00;99.90
72440;DHT22;60446;50.752;4.352;2024-01-07T13:38:02;0.00;99.90
72440;DHT22;60446;50.752;4.352;2024-01-07T13:40:29;0.00;99.90
72440;DHT22;60446;50.752;4.352;2024-01-07T13:42:57;0.00;99.90
72440;DHT22;60446;50.752;4.352;2024-01-07T13:45:24;-0.10;99.90
72440;DHT22;60446;50.752;4.352;2024-01-07T13:47:52;0.00;99.90
72440;DHT22;60446;50.752;4.352;2024-01-07T13:50:19;0.10;99.90
72440;DHT22;60446;50.752;4.352;2024-01-07T13:52:47;0.00;99.90
72440;DHT22;60446;50.752;4.352;2024-01-07T13:55:14;0.00;99.90
72440;DHT22;60446;50.752;4.352;2024-01-07T13:57:41;0.00;99.90
72440;DHT22;60446;50.752;4.352;2024-01-07T14:00:10;0.00;99.90
72440;DHT22;60446;50.752;4.352;2024-01-07T14:02:38;-0.10;99.90
72440;DHT22;60446;50.752;4.352;2024-01-07T14:05:07;-0.10;99.90
72440;DHT22;60446;50.752;4.352;2024-01-07T14:07:37;-0.10;99.90
72440;DHT22;60446;50.752;4.352;2024-01-07T14:10:06;-0.10;99.90
72440;DHT22;60446;50.752;4.352;2024-01-07T14:12:34;-0.10;99.90
72440;DHT22;60446;50.752;4.352;2024-01-07T14:15:01;-0.10;99.90
72440;DHT22;60446;50.752;4.352;2024-01-07T14:17:29;-0.10;99.90
72440;DHT22;60446;50.752;4.352;2024-01-07T14:19:57;-0.20;99.90
72440;DHT22;60446;50.752;4.352;2024-01-07T14:22:25;-0.20;99.90
72440;DHT22;60446;50.752;4.352;2024-01-07T14:24:52;-0.20;99.90
72440;DHT22;60446;50.752;4.352;2024-01-07T14:27:19;-0.20;99.90
72440;DHT22;60446;50.752;4.352;2024-01-07T14:29:47;-0.20;99.90
72440;DHT22;60446;50.752;4.352;2024-01-07T14:32:15;-0.30;99.90
72440;DHT22;60446;50.752;4.352;2024-01-07T14:34:42;-0.30;99.90
72440;DHT22;60446;50.752;4.352;2024-01-07T14:37:11;-0.30;99.90
72440;DHT22;60446;50.752;4.352;2024-01-07T14:39:38;-0.30;99.90
72440;DHT22;60446;50.752;4.352;2024-01-07T14:42:06;-0.30;99.90
72440;DHT22;60446;50.752;4.352;2024-01-07T14:44:34;-0.20;99.90
72440;DHT22;60446;50.752;4.352;2024-01-07T14:47:15;-0.20;99.90
72440;DHT22;60446;50.752;4.352;2024-01-07T14:49:42;-0.30;99.90
72440;DHT22;60446;50.752;4.352;2024-01-07T14:52:09;-0.20;99.90
72440;DHT22;60446;50.752;4.352;2024-01-07T14:54:37;-0.20;99.90
72440;DHT22;60446;50.752;4.352;2024-01-07T14:57:05;-0.20;99.90
72440;DHT22;60446;50.752;4.352;2024-01-07T14:59:35;-0.20;99.90
72440;DHT22;60446;50.752;4.352;2024-01-07T15:02:05;-0.10;99.90
72440;DHT22;60446;50.752;4.352;2024-01-07T15:04:34;-0.20;99.90
72440;DHT22;60446;50.752;4.352;2024-01-07T15:07:01;-0.20;99.90
72440;DHT22;60446;50.752;4.352;2024-01-07T15:09:28;-0.20;99.90
72440;DHT22;60446;50.752;4.352;2024-01-07T15:11:57;-0.30;99.90
72440;DHT22;60446;50.752;4.352;2024-01-07T15:14:25;-0.20;99.90
72440;DHT22;60446;50.752;4.352;2024-01-07T15:16:53;-0.20;99.90
72440;DHT22;60446;50.752;4.352;2024-01-07T15:19:22;-0.20;99.90
72440;DHT22;60446;50.752;4.352;2024-01-07T15:21:50;-0.20;99.90
72440;DHT22;60446;50.752;4.352;2024-01-07T15:24:18;-0.10;99.90
72440;DHT22;60446;50.752;4.352;2024-01-07T15:26:46;-0.20;99.90
72440;DHT22;60446;50.752;4.352;2024-01-07T15:29:13;-0.20;99.90
72440;DHT22;60446;50.752;4.352;2024-01-07T15:31:41;-0.20;99.90
72440;DHT22;60446;50.752;4.352;2024-01-07T15:34:08;-0.20;99.90
72440;DHT22;60446;50.752;4.352;2024-01-07T15:36:40;-0.20;99.90
72440;DHT22;60446;50.752;4.352;2024-01-07T15:39:08;-0.30;99.90
72440;DHT22;60446;50.752;4.352;2024-01-07T15:41:36;-0.30;99.90
72440;DHT22;60446;50.752;4.352;2024-01-07T15:44:04;-0.30;99.90
72440;DHT22;60446;50.752;4.352;2024-01-07T15:46:31;-0.20;99.90
72440;DHT22;60446;50.752;4.352;2024-01-07T15:49:00;-0.20;99.90
72440;DHT22;60446;50.752;4.352;2024-01-07T15:51:27;-0.20;99.90
72440;DHT22;60446;50.752;4.352;2024-01-07T15:53:55;-0.20;99.90
72440;DHT22;60446;50.752;4.352;2024-01-07T15:56:22;-0.20;99.90